sensor_id;sensor_type;location;lat;lon;timestamp;P1;P2;P0
76304;PMS7003;65111;50.536;19.204;2022-11-20T00:01:07;26.00;23.50;12.25
76304;PMS7003;65111;50.536;19.204;2022-11-20T00:03:41;23.00;21.25;14.50
76304;PMS7003;65111;50.536;19.204;2022-11-20T00:06:09;27.50;22.50;12.75
76304;PMS7003;65111;50.536;19.204;2022-11-20T00:08:37;30.00;25.75;16.75
76304;PMS7003;65111;50.536;19.204;2022-11-20T00:11:09;16.50;16.25;12.25
76304;PMS7003;65111;50.536;19.204;2022-11-20T00:13:33;9.50;8.50;6.50
76304;PMS7003;65111;50.536;19.204;2022-11-20T00:16:04;17.50;16.50;10.25
76304;PMS7003;65111;50.536;19.204;2022-11-20T00:18:32;8.50;7.00;4.50
76304;PMS7003;65111;50.536;19.204;2022-11-20T00:21:06;14.00;10.00;6.25
76304;PMS7003;65111;50.536;19.204;2022-11-20T00:23:35;8.25;6.75;4.50
76304;PMS7003;65111;50.536;19.204;2022-11-20T00:26:06;12.00;8.75;4.50
76304;PMS7003;65111;50.536;19.204;2022-11-20T00:28:30;10.50;10.50;8.50
76304;PMS7003;65111;50.536;19.204;2022-11-20T00:31:03;17.25;16.50;8.75
76304;PMS7003;65111;50.536;19.204;2022-11-20T00:33:31;22.25;17.50;9.75
76304;PMS7003;65111;50.536;19.204;2022-11-20T00:36:05;18.25;16.75;8.75
76304;PMS7003;65111;50.536;19.204;2022-11-20T00:38:36;22.50;18.00;11.00
76304;PMS7003;65111;50.536;19.204;2022-11-20T00:41:05;26.00;23.75;13.00
76304;PMS7003;65111;50.536;19.204;2022-11-20T00:43:33;24.75;20.25;13.25
76304;PMS7003;65111;50.536;19.204;2022-11-20T00:46:00;21.00;20.50;14.50
76304;PMS7003;65111;50.536;19.204;2022-11-20T00:51:14;18.50;12.00;7.50
76304;PMS7003;65111;50.536;19.204;2022-11-20T00:53:42;21.75;15.50;9.25
76304;PMS7003;65111;50.536;19.204;2022-11-20T00:56:10;19.75;16.75;10.75
76304;PMS7003;65111;50.536;19.204;2022-11-20T00:58:38;22.75;18.75;14.00
76304;PMS7003;65111;50.536;19.204;2022-11-20T01:01:10;18.00;15.00;9.00
76304;PMS7003;65111;50.536;19.204;2022-11-20T01:03:39;15.75;13.50;9.00
76304;PMS7003;65111;50.536;19.204;2022-11-20T01:08:55;27.50;23.50;13.50
76304;PMS7003;65111;50.536;19.204;2022-11-20T01:11:28;27.50;20.25;15.00
76304;PMS7003;65111;50.536;19.204;2022-11-20T01:13:56;32.75;26.25;15.75
76304;PMS7003;65111;50.536;19.204;2022-11-20T01:18:54;21.75;20.75;14.50
76304;PMS7003;65111;50.536;19.204;2022-11-20T01:21:23;25.00;16.50;7.50
76304;PMS7003;65111;50.536;19.204;2022-11-20T01:23:51;30.50;25.00;15.25
76304;PMS7003;65111;50.536;19.204;2022-11-20T01:26:19;24.00;22.75;14.00
76304;PMS7003;65111;50.536;19.204;2022-11-20T01:28:47;23.00;23.00;13.50
76304;PMS7003;65111;50.536;19.204;2022-11-20T01:31:27;22.75;15.25;6.75
76304;PMS7003;65111;50.536;19.204;2022-11-20T01:33:59;25.00;23.00;16.50
76304;PMS7003;65111;50.536;19.204;2022-11-20T01:36:28;25.00;16.00;13.00
76304;PMS7003;65111;50.536;19.204;2022-11-20T01:38:57;23.00;20.00;13.50
76304;PMS7003;65111;50.536;19.204;2022-11-20T01:41:26;12.50;11.00;6.50
76304;PMS7003;65111;50.536;19.204;2022-11-20T01:44:13;23.75;20.25;13.75
76304;PMS7003;65111;50.536;19.204;2022-11-20T01:49:27;17.00;17.00;10.50
76304;PMS7003;65111;50.536;19.204;2022-11-20T01:52:01;32.00;25.50;12.50
76304;PMS7003;65111;50.536;19.204;2022-11-20T01:54:44;23.75;21.25;11.75
76304;PMS7003;65111;50.536;19.204;2022-11-20T01:57:18;27.00;24.25;15.25
76304;PMS7003;65111;50.536;19.204;2022-11-20T01:59:48;24.00;23.50;13.00
76304;PMS7003;65111;50.536;19.204;2022-11-20T02:02:16;21.00;17.50;9.50
76304;PMS7003;65111;50.536;19.204;2022-11-20T02:04:42;34.00;29.25;13.00
76304;PMS7003;65111;50.536;19.204;2022-11-20T02:07:10;24.75;24.00;14.50
76304;PMS7003;65111;50.536;19.204;2022-11-20T02:09:37;38.00;25.25;14.00
76304;PMS7003;65111;50.536;19.204;2022-11-20T02:12:03;27.75;18.25;12.50
76304;PMS7003;65111;50.536;19.204;2022-11-20T02:14:30;25.00;24.00;13.50
76304;PMS7003;65111;50.536;19.204;2022-11-20T02:16:57;19.25;15.50;9.75
76304;PMS7003;65111;50.536;19.204;2022-11-20T02:19:26;31.75;24.50;15.50
76304;PMS7003;65111;50.536;19.204;2022-11-20T02:24:31;34.00;26.50;15.50
76304;PMS7003;65111;50.536;19.204;2022-11-20T02:27:06;29.00;23.00;13.00
76304;PMS7003;65111;50.536;19.204;2022-11-20T02:29:53;34.00;27.00;15.75
76304;PMS7003;65111;50.536;19.204;2022-11-20T02:32:26;38.75;30.75;20.00
76304;PMS7003;65111;50.536;19.204;2022-11-20T02:34:57;28.50;22.25;14.50
76304;PMS7003;65111;50.536;19.204;2022-11-20T02:37:27;35.75;29.00;15.25
76304;PMS7003;65111;50.536;19.204;2022-11-20T02:39:55;27.00;23.75;15.75
76304;PMS7003;65111;50.536;19.204;2022-11-20T02:42:22;24.50;23.75;13.25
76304;PMS7003;65111;50.536;19.204;2022-11-20T02:44:49;29.00;26.00;15.75
76304;PMS7003;65111;50.536;19.204;2022-11-20T02:47:15;30.75;26.50;14.75
76304;PMS7003;65111;50.536;19.204;2022-11-20T02:49:42;33.50;30.00;16.25
76304;PMS7003;65111;50.536;19.204;2022-11-20T02:52:08;27.50;22.50;16.50
76304;PMS7003;65111;50.536;19.204;2022-11-20T02:54:34;25.00;23.75;12.50
76304;PMS7003;65111;50.536;19.204;2022-11-20T02:57:00;44.00;41.00;20.50
76304;PMS7003;65111;50.536;19.204;2022-11-20T02:59:27;54.25;43.75;23.25
76304;PMS7003;65111;50.536;19.204;2022-11-20T03:01:53;34.75;32.00;21.00
76304;PMS7003;65111;50.536;19.204;2022-11-20T03:04:20;40.75;31.50;18.25
76304;PMS7003;65111;50.536;19.204;2022-11-20T03:06:46;32.25;27.50;18.25
76304;PMS7003;65111;50.536;19.204;2022-11-20T03:09:12;29.50;27.25;17.00
76304;PMS7003;65111;50.536;19.204;2022-11-20T03:11:39;32.25;29.75;17.00
76304;PMS7003;65111;50.536;19.204;2022-11-20T03:14:05;25.00;21.75;14.00
76304;PMS7003;65111;50.536;19.204;2022-11-20T03:16:31;18.25;16.50;10.50
76304;PMS7003;65111;50.536;19.204;2022-11-20T03:18:58;16.50;13.00;9.50
76304;PMS7003;65111;50.536;19.204;2022-11-20T03:21:25;11.50;10.75;6.50
76304;PMS7003;65111;50.536;19.204;2022-11-20T03:23:52;9.25;8.00;5.00
76304;PMS7003;65111;50.536;19.204;2022-11-20T03:26:21;17.25;12.75;5.50
76304;PMS7003;65111;50.536;19.204;2022-11-20T03:28:50;18.75;12.75;9.00
76304;PMS7003;65111;50.536;19.204;2022-11-20T03:31:19;16.75;15.75;8.25
76304;PMS7003;65111;50.536;19.204;2022-11-20T03:33:48;17.50;14.50;10.50
76304;PMS7003;65111;50.536;19.204;2022-11-20T03:36:14;9.75;9.75;6.50
76304;PMS7003;65111;50.536;19.204;2022-11-20T03:38:42;15.75;10.00;6.25
76304;PMS7003;65111;50.536;19.204;2022-11-20T03:41:14;17.00;14.00;8.50
76304;PMS7003;65111;50.536;19.204;2022-11-20T03:43:39;19.50;12.75;9.00
76304;PMS7003;65111;50.536;19.204;2022-11-20T03:46:06;12.00;11.00;5.50
76304;PMS7003;65111;50.536;19.204;2022-11-20T03:48:33;14.50;10.75;7.00
76304;PMS7003;65111;50.536;19.204;2022-11-20T03:53:50;17.50;17.50;11.75
76304;PMS7003;65111;50.536;19.204;2022-11-20T03:56:20;20.00;15.00;8.50
76304;PMS7003;65111;50.536;19.204;2022-11-20T03:58:48;20.25;17.75;11.75
76304;PMS7003;65111;50.536;19.204;2022-11-20T04:01:19;18.75;16.25;10.00
76304;PMS7003;65111;50.536;19.204;2022-11-20T04:03:47;24.50;20.00;13.50
76304;PMS7003;65111;50.536;19.204;2022-11-20T04:06:19;23.50;15.75;11.00
76304;PMS7003;65111;50.536;19.204;2022-11-20T04:08:47;17.75;13.25;8.00
76304;PMS7003;65111;50.536;19.204;2022-11-20T04:11:15;19.50;18.25;12.25
76304;PMS7003;65111;50.536;19.204;2022-11-20T04:13:47;11.75;9.25;3.50
76304;PMS7003;65111;50.536;19.204;2022-11-20T04:16:18;14.50;12.50;9.00
76304;PMS7003;65111;50.536;19.204;2022-11-20T04:18:45;17.25;15.25;9.25
76304;PMS7003;65111;50.536;19.204;2022-11-20T04:21:12;11.25;11.25;7.00
76304;PMS7003;65111;50.536;19.204;2022-11-20T04:23:38;15.50;13.25;8.50
76304;PMS7003;65111;50.536;19.204;2022-11-20T04:26:09;22.00;17.50;12.00
76304;PMS7003;65111;50.536;19.204;2022-11-20T04:28:36;18.25;18.25;12.50
76304;PMS7003;65111;50.536;19.204;2022-11-20T04:31:05;20.50;18.25;10.50
76304;PMS7003;65111;50.536;19.204;2022-11-20T04:33:33;26.00;20.50;14.25
76304;PMS7003;65111;50.536;19.204;2022-11-20T04:36:05;19.75;16.00;12.00
76304;PMS7003;65111;50.536;19.204;2022-11-20T04:38:33;26.50;24.25;11.00
76304;PMS7003;65111;50.536;19.204;2022-11-20T04:41:01;22.25;21.00;11.00
76304;PMS7003;65111;50.536;19.204;2022-11-20T04:43:29;21.25;20.50;12.25
76304;PMS7003;65111;50.536;19.204;2022-11-20T04:45:56;33.00;21.00;10.50
76304;PMS7003;65111;50.536;19.204;2022-11-20T04:48:24;25.25;16.75;14.00
76304;PMS7003;65111;50.536;19.204;2022-11-20T04:50:52;15.50;14.00;6.75
76304;PMS7003;65111;50.536;19.204;2022-11-20T04:53:19;30.00;25.00;13.25
76304;PMS7003;65111;50.536;19.204;2022-11-20T04:55:46;22.25;13.50;9.25
76304;PMS7003;65111;50.536;19.204;2022-11-20T04:58:12;20.75;13.25;10.75
76304;PMS7003;65111;50.536;19.204;2022-11-20T05:00:39;20.25;19.50;12.50
76304;PMS7003;65111;50.536;19.204;2022-11-20T05:03:05;15.75;15.00;9.00
76304;PMS7003;65111;50.536;19.204;2022-11-20T05:05:35;26.50;20.50;12.50
76304;PMS7003;65111;50.536;19.204;2022-11-20T05:08:01;18.75;15.00;9.00
76304;PMS7003;65111;50.536;19.204;2022-11-20T05:10:28;28.75;19.25;11.50
76304;PMS7003;65111;50.536;19.204;2022-11-20T05:12:54;27.25;22.75;12.75
76304;PMS7003;65111;50.536;19.204;2022-11-20T05:15:20;20.25;17.25;10.00
76304;PMS7003;65111;50.536;19.204;2022-11-20T05:17:48;24.25;20.50;15.00
76304;PMS7003;65111;50.536;19.204;2022-11-20T05:20:16;19.25;19.25;11.25
76304;PMS7003;65111;50.536;19.204;2022-11-20T05:22:43;24.50;23.00;13.50
76304;PMS7003;65111;50.536;19.204;2022-11-20T05:25:10;17.00;13.00;9.00
76304;PMS7003;65111;50.536;19.204;2022-11-20T05:27:36;23.25;17.00;11.50
76304;PMS7003;65111;50.536;19.204;2022-11-20T05:30:04;15.50;14.50;8.00
76304;PMS7003;65111;50.536;19.204;2022-11-20T05:32:31;18.75;17.50;11.50
76304;PMS7003;65111;50.536;19.204;2022-11-20T05:34:58;16.50;14.50;9.25
76304;PMS7003;65111;50.536;19.204;2022-11-20T05:37:24;26.75;23.00;14.75
76304;PMS7003;65111;50.536;19.204;2022-11-20T05:39:50;20.75;20.50;14.50
76304;PMS7003;65111;50.536;19.204;2022-11-20T05:42:17;22.25;19.75;11.50
76304;PMS7003;65111;50.536;19.204;2022-11-20T05:45:03;10.25;8.00;5.50
76304;PMS7003;65111;50.536;19.204;2022-11-20T05:47:33;10.50;8.00;6.00
76304;PMS7003;65111;50.536;19.204;2022-11-20T05:50:00;12.00;7.00;3.00
76304;PMS7003;65111;50.536;19.204;2022-11-20T05:52:30;7.25;7.25;5.00
76304;PMS7003;65111;50.536;19.204;2022-11-20T05:54:56;9.00;4.50;4.00
76304;PMS7003;65111;50.536;19.204;2022-11-20T05:57:23;4.00;4.00;2.50
76304;PMS7003;65111;50.536;19.204;2022-11-20T05:59:49;7.50;7.50;5.00
76304;PMS7003;65111;50.536;19.204;2022-11-20T06:02:16;6.75;3.50;2.00
76304;PMS7003;65111;50.536;19.204;2022-11-20T06:04:42;6.00;3.75;3.25
76304;PMS7003;65111;50.536;19.204;2022-11-20T06:07:09;14.50;13.50;7.50
76304;PMS7003;65111;50.536;19.204;2022-11-20T06:09:35;14.25;9.50;6.00
76304;PMS7003;65111;50.536;19.204;2022-11-20T06:12:02;12.00;12.00;6.00
76304;PMS7003;65111;50.536;19.204;2022-11-20T06:14:28;13.00;11.50;8.50
76304;PMS7003;65111;50.536;19.204;2022-11-20T06:16:55;8.75;7.75;5.50
76304;PMS7003;65111;50.536;19.204;2022-11-20T06:19:21;7.25;6.50;3.75
76304;PMS7003;65111;50.536;19.204;2022-11-20T06:21:48;9.00;6.75;4.00
76304;PMS7003;65111;50.536;19.204;2022-11-20T06:24:16;7.00;5.50;3.25
76304;PMS7003;65111;50.536;19.204;2022-11-20T06:26:43;12.00;11.00;6.50
76304;PMS7003;65111;50.536;19.204;2022-11-20T06:29:10;12.75;12.75;8.00
76304;PMS7003;65111;50.536;19.204;2022-11-20T06:31:37;13.00;12.25;8.75
76304;PMS7003;65111;50.536;19.204;2022-11-20T06:34:03;6.25;5.00;3.00
76304;PMS7003;65111;50.536;19.204;2022-11-20T06:36:31;15.00;15.00;9.75
76304;PMS7003;65111;50.536;19.204;2022-11-20T06:38:58;10.25;9.25;6.00
76304;PMS7003;65111;50.536;19.204;2022-11-20T06:41:25;9.50;9.25;4.00
76304;PMS7003;65111;50.536;19.204;2022-11-20T06:43:51;9.00;7.00;4.00
76304;PMS7003;65111;50.536;19.204;2022-11-20T06:46:18;11.00;8.50;6.00
76304;PMS7003;65111;50.536;19.204;2022-11-20T06:48:46;20.00;19.50;11.50
76304;PMS7003;65111;50.536;19.204;2022-11-20T06:51:13;23.25;17.50;8.75
76304;PMS7003;65111;50.536;19.204;2022-11-20T06:53:40;16.50;14.00;10.00
76304;PMS7003;65111;50.536;19.204;2022-11-20T06:56:06;27.00;24.50;17.50
76304;PMS7003;65111;50.536;19.204;2022-11-20T06:58:33;19.50;15.75;12.75
76304;PMS7003;65111;50.536;19.204;2022-11-20T07:01:01;32.75;29.75;16.50
76304;PMS7003;65111;50.536;19.204;2022-11-20T07:03:30;18.25;15.00;9.00
76304;PMS7003;65111;50.536;19.204;2022-11-20T07:05:57;12.75;12.25;8.00
76304;PMS7003;65111;50.536;19.204;2022-11-20T07:08:25;18.50;16.00;8.50
76304;PMS7003;65111;50.536;19.204;2022-11-20T07:10:51;18.00;11.50;6.50
76304;PMS7003;65111;50.536;19.204;2022-11-20T07:13:18;11.00;11.00;6.50
76304;PMS7003;65111;50.536;19.204;2022-11-20T07:15:44;9.00;6.00;1.00
76304;PMS7003;65111;50.536;19.204;2022-11-20T07:18:10;17.00;13.00;8.75
76304;PMS7003;65111;50.536;19.204;2022-11-20T07:20:36;13.00;10.00;7.00
76304;PMS7003;65111;50.536;19.204;2022-11-20T07:23:03;16.00;15.00;9.00
76304;PMS7003;65111;50.536;19.204;2022-11-20T07:25:29;17.25;16.00;10.50
76304;PMS7003;65111;50.536;19.204;2022-11-20T07:27:59;35.50;22.50;14.25
76304;PMS7003;65111;50.536;19.204;2022-11-20T07:30:26;42.75;37.25;23.00
76304;PMS7003;65111;50.536;19.204;2022-11-20T07:32:54;31.00;29.25;17.00
76304;PMS7003;65111;50.536;19.204;2022-11-20T07:35:22;38.00;33.00;21.50
76304;PMS7003;65111;50.536;19.204;2022-11-20T07:37:49;32.25;32.25;18.25
76304;PMS7003;65111;50.536;19.204;2022-11-20T07:40:16;31.25;30.50;15.75
76304;PMS7003;65111;50.536;19.204;2022-11-20T07:42:47;50.00;41.25;23.00
76304;PMS7003;65111;50.536;19.204;2022-11-20T07:45:14;39.25;39.25;25.25
76304;PMS7003;65111;50.536;19.204;2022-11-20T07:47:41;31.00;28.50;21.00
76304;PMS7003;65111;50.536;19.204;2022-11-20T07:50:08;41.00;41.00;24.00
76304;PMS7003;65111;50.536;19.204;2022-11-20T07:52:35;37.00;32.25;19.00
76304;PMS7003;65111;50.536;19.204;2022-11-20T07:55:01;40.75;35.00;22.75
76304;PMS7003;65111;50.536;19.204;2022-11-20T07:57:27;34.50;27.25;19.00
76304;PMS7003;65111;50.536;19.204;2022-11-20T07:59:53;42.75;37.75;26.25
76304;PMS7003;65111;50.536;19.204;2022-11-20T08:02:20;48.50;37.75;24.25
76304;PMS7003;65111;50.536;19.204;2022-11-20T08:04:46;53.00;42.75;26.50
76304;PMS7003;65111;50.536;19.204;2022-11-20T08:07:12;37.50;31.75;19.50
76304;PMS7003;65111;50.536;19.204;2022-11-20T08:09:38;40.00;33.50;25.25
76304;PMS7003;65111;50.536;19.204;2022-11-20T08:12:05;86.25;67.75;42.50
76304;PMS7003;65111;50.536;19.204;2022-11-20T08:14:50;68.00;56.50;35.00
76304;PMS7003;65111;50.536;19.204;2022-11-20T08:17:16;64.75;53.00;34.50
76304;PMS7003;65111;50.536;19.204;2022-11-20T08:19:43;68.00;51.25;30.75
76304;PMS7003;65111;50.536;19.204;2022-11-20T08:22:09;55.50;48.25;26.00
76304;PMS7003;65111;50.536;19.204;2022-11-20T08:24:35;55.75;47.75;33.25
76304;PMS7003;65111;50.536;19.204;2022-11-20T08:27:02;81.25;62.25;39.00
76304;PMS7003;65111;50.536;19.204;2022-11-20T08:29:28;60.75;47.75;33.75
76304;PMS7003;65111;50.536;19.204;2022-11-20T08:31:54;83.75;64.25;41.50
76304;PMS7003;65111;50.536;19.204;2022-11-20T08:34:21;72.25;57.25;35.25
76304;PMS7003;65111;50.536;19.204;2022-11-20T08:36:47;73.75;59.50;37.25
76304;PMS7003;65111;50.536;19.204;2022-11-20T08:39:14;64.75;53.00;27.00
76304;PMS7003;65111;50.536;19.204;2022-11-20T08:41:40;74.25;60.25;37.25
76304;PMS7003;65111;50.536;19.204;2022-11-20T08:44:07;67.25;56.25;35.50
76304;PMS7003;65111;50.536;19.204;2022-11-20T08:46:34;54.25;44.50;29.50
76304;PMS7003;65111;50.536;19.204;2022-11-20T08:49:07;59.25;46.00;30.00
76304;PMS7003;65111;50.536;19.204;2022-11-20T08:51:35;53.75;45.00;28.25
76304;PMS7003;65111;50.536;19.204;2022-11-20T08:54:01;62.00;50.50;31.75
76304;PMS7003;65111;50.536;19.204;2022-11-20T08:56:28;53.50;45.00;29.25
76304;PMS7003;65111;50.536;19.204;2022-11-20T08:58:55;54.50;44.50;29.25
76304;PMS7003;65111;50.536;19.204;2022-11-20T09:01:22;57.50;45.50;29.00
76304;PMS7003;65111;50.536;19.204;2022-11-20T09:03:48;46.75;41.00;26.00
76304;PMS7003;65111;50.536;19.204;2022-11-20T09:06:15;58.50;48.75;29.25
76304;PMS7003;65111;50.536;19.204;2022-11-20T09:08:42;65.25;52.50;33.00
76304;PMS7003;65111;50.536;19.204;2022-11-20T09:11:08;61.75;48.50;28.00
76304;PMS7003;65111;50.536;19.204;2022-11-20T09:13:36;72.25;55.50;34.00
76304;PMS7003;65111;50.536;19.204;2022-11-20T09:16:06;62.00;50.00;27.00
76304;PMS7003;65111;50.536;19.204;2022-11-20T09:18:34;63.00;50.50;31.75
76304;PMS7003;65111;50.536;19.204;2022-11-20T09:21:05;52.25;40.50;21.75
76304;PMS7003;65111;50.536;19.204;2022-11-20T09:23:34;62.00;48.25;32.25
76304;PMS7003;65111;50.536;19.204;2022-11-20T09:26:02;63.00;49.75;29.75
76304;PMS7003;65111;50.536;19.204;2022-11-20T09:28:30;61.00;48.00;29.50
76304;PMS7003;65111;50.536;19.204;2022-11-20T09:30:56;56.50;45.25;28.25
76304;PMS7003;65111;50.536;19.204;2022-11-20T09:33:23;54.00;45.00;29.50
76304;PMS7003;65111;50.536;19.204;2022-11-20T09:35:49;14.50;8.00;1.00
76304;PMS7003;65111;50.536;19.204;2022-11-20T09:38:15;56.25;45.25;27.50
76304;PMS7003;65111;50.536;19.204;2022-11-20T09:46:25;48.75;39.50;25.25
76304;PMS7003;65111;50.536;19.204;2022-11-20T09:51:59;41.00;36.00;23.25
76304;PMS7003;65111;50.536;19.204;2022-11-20T09:54:29;42.25;36.75;23.75
76304;PMS7003;65111;50.536;19.204;2022-11-20T09:57:05;41.00;35.75;24.00
76304;PMS7003;65111;50.536;19.204;2022-11-20T10:02:08;48.75;39.25;23.25
76304;PMS7003;65111;50.536;19.204;2022-11-20T10:04:39;57.25;46.25;28.25
76304;PMS7003;65111;50.536;19.204;2022-11-20T10:07:12;54.25;45.00;28.25
76304;PMS7003;65111;50.536;19.204;2022-11-20T10:09:43;45.50;39.00;25.50
76304;PMS7003;65111;50.536;19.204;2022-11-20T10:20:33;45.25;40.00;24.75
76304;PMS7003;65111;50.536;19.204;2022-11-20T10:26:02;48.50;39.00;25.00
76304;PMS7003;65111;50.536;19.204;2022-11-20T10:31:31;35.25;27.50;19.50
76304;PMS7003;65111;50.536;19.204;2022-11-20T10:34:25;47.50;42.50;28.00
76304;PMS7003;65111;50.536;19.204;2022-11-20T10:36:46;52.50;42.50;27.75
76304;PMS7003;65111;50.536;19.204;2022-11-20T10:39:32;42.25;38.00;24.50
76304;PMS7003;65111;50.536;19.204;2022-11-20T10:42:03;48.25;40.25;25.50
76304;PMS7003;65111;50.536;19.204;2022-11-20T10:44:32;43.25;37.75;23.50
76304;PMS7003;65111;50.536;19.204;2022-11-20T10:47:18;46.25;38.50;24.75
76304;PMS7003;65111;50.536;19.204;2022-11-20T10:49:48;34.50;31.50;20.00
76304;PMS7003;65111;50.536;19.204;2022-11-20T10:55:05;41.50;36.00;20.00
76304;PMS7003;65111;50.536;19.204;2022-11-20T11:00:34;38.75;35.00;22.50
76304;PMS7003;65111;50.536;19.204;2022-11-20T11:03:01;30.25;22.00;16.75
76304;PMS7003;65111;50.536;19.204;2022-11-20T11:08:17;50.25;44.00;27.25
76304;PMS7003;65111;50.536;19.204;2022-11-20T11:13:27;27.00;24.50;15.50
76304;PMS7003;65111;50.536;19.204;2022-11-20T11:15:57;47.25;39.50;28.25
76304;PMS7003;65111;50.536;19.204;2022-11-20T11:18:28;36.50;34.75;21.50
76304;PMS7003;65111;50.536;19.204;2022-11-20T11:20:56;37.25;37.00;21.25
76304;PMS7003;65111;50.536;19.204;2022-11-20T11:23:29;39.25;36.50;24.00
76304;PMS7003;65111;50.536;19.204;2022-11-20T11:25:57;48.75;39.75;25.25
76304;PMS7003;65111;50.536;19.204;2022-11-20T11:28:25;36.75;33.25;22.50
76304;PMS7003;65111;50.536;19.204;2022-11-20T11:30:53;35.25;30.00;18.75
76304;PMS7003;65111;50.536;19.204;2022-11-20T11:33:22;43.25;40.00;24.75
76304;PMS7003;65111;50.536;19.204;2022-11-20T11:35:51;40.50;34.00;21.50
76304;PMS7003;65111;50.536;19.204;2022-11-20T11:38:26;39.25;37.00;21.50
76304;PMS7003;65111;50.536;19.204;2022-11-20T11:40:55;41.75;38.00;24.75
76304;PMS7003;65111;50.536;19.204;2022-11-20T11:43:24;30.50;28.00;18.00
76304;PMS7003;65111;50.536;19.204;2022-11-20T11:48:57;22.25;18.75;9.75
76304;PMS7003;65111;50.536;19.204;2022-11-20T11:54:05;35.50;32.00;20.25
76304;PMS7003;65111;50.536;19.204;2022-11-20T11:56:33;41.50;37.50;27.00
76304;PMS7003;65111;50.536;19.204;2022-11-20T11:59:00;38.75;37.75;26.00
76304;PMS7003;65111;50.536;19.204;2022-11-20T12:06:39;46.75;40.75;25.75
76304;PMS7003;65111;50.536;19.204;2022-11-20T12:09:09;49.50;44.50;27.50
76304;PMS7003;65111;50.536;19.204;2022-11-20T12:14:37;35.00;30.75;13.00
76304;PMS7003;65111;50.536;19.204;2022-11-20T12:17:05;50.25;42.75;25.25
76304;PMS7003;65111;50.536;19.204;2022-11-20T12:19:34;42.75;39.00;24.25
76304;PMS7003;65111;50.536;19.204;2022-11-20T12:25:04;36.50;33.75;22.25
76304;PMS7003;65111;50.536;19.204;2022-11-20T12:30:21;40.00;31.50;20.50
76304;PMS7003;65111;50.536;19.204;2022-11-20T12:53:00;54.50;47.50;29.50
76304;PMS7003;65111;50.536;19.204;2022-11-20T13:00:47;32.75;27.50;17.50
76304;PMS7003;65111;50.536;19.204;2022-11-20T13:08:47;47.50;41.50;25.50
76304;PMS7003;65111;50.536;19.204;2022-11-20T13:11:37;48.25;45.00;27.25
76304;PMS7003;65111;50.536;19.204;2022-11-20T13:19:38;41.00;34.50;21.50
76304;PMS7003;65111;50.536;19.204;2022-11-20T13:22:07;38.00;36.25;24.75
76304;PMS7003;65111;50.536;19.204;2022-11-20T13:24:35;31.50;27.50;18.00
76304;PMS7003;65111;50.536;19.204;2022-11-20T13:29:41;42.50;34.00;22.00
76304;PMS7003;65111;50.536;19.204;2022-11-20T13:32:14;45.00;33.75;21.25
76304;PMS7003;65111;50.536;19.204;2022-11-20T13:34:55;33.25;33.25;23.00
76304;PMS7003;65111;50.536;19.204;2022-11-20T13:37:28;39.75;34.00;22.00
76304;PMS7003;65111;50.536;19.204;2022-11-20T13:39:53;32.00;30.25;21.25
76304;PMS7003;65111;50.536;19.204;2022-11-20T13:42:33;33.00;29.75;19.00
76304;PMS7003;65111;50.536;19.204;2022-11-20T13:45:27;45.75;35.50;22.00
76304;PMS7003;65111;50.536;19.204;2022-11-20T13:47:50;46.25;36.75;23.00
76304;PMS7003;65111;50.536;19.204;2022-11-20T13:50:17;44.75;37.00;24.00
76304;PMS7003;65111;50.536;19.204;2022-11-20T14:00:43;37.50;32.75;21.00
76304;PMS7003;65111;50.536;19.204;2022-11-20T14:03:16;24.00;19.75;11.75
76304;PMS7003;65111;50.536;19.204;2022-11-20T14:05:54;38.50;36.75;18.00
76304;PMS7003;65111;50.536;19.204;2022-11-20T14:11:16;38.75;27.00;17.75
76304;PMS7003;65111;50.536;19.204;2022-11-20T14:16:33;34.75;33.00;21.00
76304;PMS7003;65111;50.536;19.204;2022-11-20T14:22:15;24.50;22.25;16.25
76304;PMS7003;65111;50.536;19.204;2022-11-20T14:24:46;29.75;26.00;15.50
76304;PMS7003;65111;50.536;19.204;2022-11-20T14:27:39;27.00;27.00;17.00
76304;PMS7003;65111;50.536;19.204;2022-11-20T14:30:04;34.00;33.50;21.00
76304;PMS7003;65111;50.536;19.204;2022-11-20T14:32:32;25.00;24.00;16.00
76304;PMS7003;65111;50.536;19.204;2022-11-20T14:35:02;28.00;22.75;15.25
76304;PMS7003;65111;50.536;19.204;2022-11-20T14:37:32;28.50;26.00;18.00
76304;PMS7003;65111;50.536;19.204;2022-11-20T14:40:00;31.50;31.50;17.50
76304;PMS7003;65111;50.536;19.204;2022-11-20T14:42:27;26.75;24.50;15.25
76304;PMS7003;65111;50.536;19.204;2022-11-20T14:44:56;30.25;22.50;16.00
76304;PMS7003;65111;50.536;19.204;2022-11-20T14:47:28;28.50;25.00;18.00
76304;PMS7003;65111;50.536;19.204;2022-11-20T14:49:57;23.00;21.50;14.50
76304;PMS7003;65111;50.536;19.204;2022-11-20T14:52:25;28.00;25.25;15.50
76304;PMS7003;65111;50.536;19.204;2022-11-20T14:54:54;35.50;22.00;14.50
76304;PMS7003;65111;50.536;19.204;2022-11-20T14:57:31;24.50;21.50;13.00
76304;PMS7003;65111;50.536;19.204;2022-11-20T15:02:42;34.75;30.00;21.00
76304;PMS7003;65111;50.536;19.204;2022-11-20T15:05:10;32.00;28.75;18.75
76304;PMS7003;65111;50.536;19.204;2022-11-20T15:07:37;28.50;25.00;15.00
76304;PMS7003;65111;50.536;19.204;2022-11-20T15:10:08;24.75;21.75;15.25
76304;PMS7003;65111;50.536;19.204;2022-11-20T15:12:38;28.00;28.00;18.50
76304;PMS7003;65111;50.536;19.204;2022-11-20T15:15:09;27.25;20.00;9.75
76304;PMS7003;65111;50.536;19.204;2022-11-20T15:17:37;31.25;26.00;16.00
76304;PMS7003;65111;50.536;19.204;2022-11-20T15:20:09;26.50;23.50;15.00
76304;PMS7003;65111;50.536;19.204;2022-11-20T15:22:36;29.50;24.50;14.00
76304;PMS7003;65111;50.536;19.204;2022-11-20T15:25:07;25.75;24.00;15.00
76304;PMS7003;65111;50.536;19.204;2022-11-20T15:27:44;23.00;21.00;11.50
76304;PMS7003;65111;50.536;19.204;2022-11-20T15:30:12;33.25;29.50;17.50
76304;PMS7003;65111;50.536;19.204;2022-11-20T15:32:41;24.25;18.50;14.50
76304;PMS7003;65111;50.536;19.204;2022-11-20T15:35:08;22.75;20.00;12.25
76304;PMS7003;65111;50.536;19.204;2022-11-20T15:37:35;24.00;19.50;13.00
76304;PMS7003;65111;50.536;19.204;2022-11-20T15:40:02;40.00;31.50;17.50
76304;PMS7003;65111;50.536;19.204;2022-11-20T15:42:30;19.00;18.00;11.00
76304;PMS7003;65111;50.536;19.204;2022-11-20T15:44:56;28.00;23.25;16.25
76304;PMS7003;65111;50.536;19.204;2022-11-20T15:47:24;43.25;37.50;25.00
76304;PMS7003;65111;50.536;19.204;2022-11-20T15:49:52;38.75;31.50;20.75
76304;PMS7003;65111;50.536;19.204;2022-11-20T15:52:18;30.00;28.00;15.75
76304;PMS7003;65111;50.536;19.204;2022-11-20T15:54:44;43.50;42.50;21.50
76304;PMS7003;65111;50.536;19.204;2022-11-20T15:57:11;46.50;33.75;20.00
76304;PMS7003;65111;50.536;19.204;2022-11-20T15:59:38;37.75;31.50;20.75